Terminal Aerodrome Forecast
Issued by NWS

Home | Current Version | Previous Version | Text Only | Print | Product List | Glossary On
Versions: 1 2 3 4 5 6 7 8 9 10 11 12 13 14
000
FTUS42 KTBW 270538
TAFRSW
TAF
KRSW 270538Z 2706/2806 25005KT P6SM SCT020 SCT250
      TEMPO 2708/2712 BKN020
     FM271400 29009KT P6SM SCT025 BKN250
     FM271900 32010KT P6SM VCTS SCT040CB SCT120 BKN250
     FM280100 12004KT P6SM SCT020 SCT100 BKN250=

USA.gov is the U.S. government's official web portal to all federal, state and local government web resources and services.